createdAt,value
2019-02-22T00:00:52.351Z,24.00
2019-02-22T00:01:52.343Z,24.00
2019-02-22T00:02:52.363Z,24.00
2019-02-22T00:03:52.321Z,24.00
2019-02-22T00:04:52.317Z,24.00
2019-02-22T00:05:52.302Z,24.00
2019-02-22T00:06:52.308Z,24.00
2019-02-22T00:08:03.322Z,24.00
2019-02-22T00:08:52.281Z,24.00
2019-02-22T00:09:52.284Z,24.00
2019-02-22T00:10:52.255Z,24.00
2019-02-22T00:11:52.254Z,24.00
2019-02-22T00:12:52.247Z,24.00
2019-02-22T00:13:52.259Z,24.00
2019-02-22T00:14:52.218Z,24.00
2019-02-22T00:15:52.212Z,24.00
2019-02-22T00:16:52.195Z,28.00
2019-02-22T00:17:52.186Z,24.00
2019-02-22T00:18:52.177Z,28.00
2019-02-22T00:19:52.208Z,28.00
2019-02-22T00:20:52.152Z,28.00
2019-02-22T00:21:52.150Z,28.00
2019-02-22T00:22:52.132Z,24.00
2019-02-22T00:23:52.120Z,24.00
2019-02-22T00:24:52.186Z,24.00
2019-02-22T00:25:52.105Z,24.00
2019-02-22T00:26:52.127Z,24.00
2019-02-22T00:27:52.094Z,28.00
2019-02-22T00:28:52.074Z,24.00
2019-02-22T00:29:52.057Z,24.00
2019-02-22T00:30:52.053Z,24.00
2019-02-22T00:31:52.039Z,28.00
2019-02-22T00:32:52.047Z,24.00
2019-02-22T00:33:52.028Z,24.00
2019-02-22T00:34:52.130Z,24.00
2019-02-22T00:35:52.015Z,24.00
2019-02-22T00:36:52.179Z,24.00
2019-02-22T00:37:52.156Z,24.00
2019-02-22T00:39:02.703Z,24.00
2019-02-22T00:39:51.970Z,24.00
2019-02-22T00:40:51.951Z,24.00
2019-02-22T00:41:51.942Z,24.00
2019-02-22T00:42:51.950Z,24.00
2019-02-22T00:43:51.948Z,24.00
2019-02-22T00:44:51.907Z,24.00
2019-02-22T00:45:51.893Z,24.00
2019-02-22T00:46:51.882Z,24.00
2019-02-22T00:47:51.887Z,24.00
2019-02-22T00:48:51.866Z,24.00
2019-02-22T00:49:51.894Z,24.00
2019-02-22T00:50:51.844Z,24.00
2019-02-22T00:51:51.839Z,28.00
2019-02-22T00:52:51.819Z,24.00
2019-02-22T00:53:51.826Z,24.00
2019-02-22T00:54:51.803Z,24.00
2019-02-22T00:55:51.828Z,24.00
2019-02-22T00:56:51.785Z,24.00
2019-02-22T00:57:51.766Z,24.00
2019-02-22T00:58:51.765Z,24.00
2019-02-22T00:59:51.831Z,24.00
2019-02-22T01:00:51.742Z,24.00
2019-02-22T01:01:51.765Z,24.00
2019-02-22T01:02:51.721Z,24.00
2019-02-22T01:03:51.707Z,24.00
2019-02-22T01:04:51.707Z,24.00
2019-02-22T01:05:51.694Z,24.00
2019-02-22T01:06:51.674Z,24.00
2019-02-22T01:07:51.716Z,24.00
2019-02-22T01:08:51.655Z,24.00
2019-02-22T01:10:01.986Z,24.00
2019-02-22T01:10:51.647Z,24.00
2019-02-22T01:11:51.625Z,24.00
2019-02-22T01:12:51.626Z,24.00
2019-02-22T01:13:51.643Z,24.00
2019-02-22T01:14:51.597Z,24.00
2019-02-22T01:15:51.588Z,24.00
2019-02-22T01:16:51.577Z,24.00
2019-02-22T01:17:51.572Z,24.00
2019-02-22T01:18:51.547Z,24.00
2019-02-22T01:19:51.575Z,24.00
2019-02-22T01:20:54.355Z,24.00
2019-02-22T01:21:51.532Z,24.00
2019-02-22T01:22:51.512Z,24.00
2019-02-22T01:23:51.512Z,24.00
2019-02-22T01:24:51.488Z,24.00
2019-02-22T01:25:51.525Z,24.00
2019-02-22T01:26:51.475Z,24.00
2019-02-22T01:27:51.462Z,24.00
2019-02-22T01:28:51.450Z,24.00
2019-02-22T01:29:51.450Z,24.00
2019-02-22T01:30:51.429Z,24.00
2019-02-22T01:31:51.456Z,24.00
2019-02-22T01:32:51.606Z,24.00
2019-02-22T01:33:53.989Z,24.00
2019-02-22T01:34:51.410Z,24.00
2019-02-22T01:35:51.387Z,24.00
2019-02-22T01:36:51.368Z,24.00
2019-02-22T01:37:51.402Z,24.00
2019-02-22T01:38:51.353Z,24.00
2019-02-22T01:39:51.342Z,24.00
2019-02-22T01:41:01.353Z,24.00
2019-02-22T01:41:51.326Z,24.00
2019-02-22T01:42:51.306Z,24.00
2019-02-22T01:43:51.484Z,24.00
2019-02-22T01:44:51.291Z,24.00
2019-02-22T01:45:51.271Z,24.00
2019-02-22T01:46:51.294Z,24.00
2019-02-22T01:47:51.251Z,24.00
2019-02-22T01:48:51.246Z,24.00
2019-02-22T01:49:51.301Z,24.00
2019-02-22T01:50:51.220Z,24.00
2019-02-22T01:51:51.212Z,24.00
2019-02-22T01:52:51.206Z,24.00
2019-02-22T01:53:53.883Z,24.00
2019-02-22T01:54:51.178Z,24.00
2019-02-22T01:55:51.230Z,24.00
2019-02-22T01:56:51.158Z,24.00
2019-02-22T01:57:51.148Z,24.00
2019-02-22T01:58:51.143Z,24.00
2019-02-22T01:59:51.130Z,24.00
2019-02-22T02:00:51.112Z,24.00
2019-02-22T02:01:51.250Z,24.00
2019-02-22T02:02:51.098Z,24.00
2019-02-22T02:03:51.091Z,24.00
2019-02-22T02:04:51.072Z,24.00
2019-02-22T02:05:51.066Z,24.00
2019-02-22T02:06:51.091Z,24.00
2019-02-22T02:07:51.053Z,24.00
2019-02-22T02:08:51.053Z,24.00
2019-02-22T02:09:51.022Z,24.00
2019-02-22T02:10:54.167Z,24.00
2019-02-22T02:12:02.162Z,24.00
2019-02-22T02:12:50.996Z,24.00
2019-02-22T02:13:50.984Z,24.00
2019-02-22T02:14:50.974Z,24.00
2019-02-22T02:15:50.976Z,24.00
2019-02-22T02:16:50.951Z,24.00
2019-02-22T02:17:50.983Z,24.00
2019-02-22T02:18:50.927Z,24.00
2019-02-22T02:19:50.924Z,24.00
2019-02-22T02:20:50.935Z,24.00
2019-02-22T02:21:50.896Z,24.00
2019-02-22T02:22:50.891Z,24.00
2019-02-22T02:23:51.053Z,24.00
2019-02-22T02:24:50.875Z,24.00
2019-02-22T02:25:50.853Z,24.00
2019-02-22T02:26:50.848Z,24.00
2019-02-22T02:27:50.858Z,24.00
2019-02-22T02:28:51.660Z,24.00
2019-02-22T02:29:50.858Z,24.00
2019-02-22T02:30:50.800Z,24.00
2019-02-22T02:31:50.801Z,24.00
2019-02-22T02:32:50.808Z,24.00
2019-02-22T02:33:50.784Z,24.00
2019-02-22T02:34:50.765Z,24.00
2019-02-22T02:35:50.784Z,24.00
2019-02-22T02:36:50.747Z,24.00
2019-02-22T02:37:50.729Z,24.00
2019-02-22T02:38:50.740Z,24.00
2019-02-22T02:39:50.717Z,24.00
2019-02-22T02:40:50.709Z,24.00
2019-02-22T02:41:50.705Z,24.00
2019-02-22T02:43:01.322Z,24.00
2019-02-22T02:43:50.685Z,24.00
2019-02-22T02:44:50.663Z,24.00
2019-02-22T02:45:50.652Z,24.00
2019-02-22T02:46:50.646Z,24.00
2019-02-22T02:47:50.700Z,24.00
2019-02-22T02:48:50.660Z,24.00
2019-02-22T02:49:50.680Z,24.00
2019-02-22T02:50:50.620Z,24.00
2019-02-22T02:51:50.585Z,24.00
2019-02-22T02:52:50.611Z,24.00
2019-02-22T02:53:50.588Z,24.00
2019-02-22T02:54:50.745Z,24.00
2019-02-22T02:55:50.558Z,24.00
2019-02-22T02:56:50.571Z,24.00
2019-02-22T02:57:50.522Z,24.00
2019-02-22T02:58:50.517Z,24.00
2019-02-22T02:59:50.525Z,24.00
2019-02-22T03:00:50.531Z,24.00
2019-02-22T03:01:50.486Z,24.00
2019-02-22T03:02:50.493Z,24.00
2019-02-22T03:03:50.461Z,24.00
2019-02-22T03:04:50.454Z,24.00
2019-02-22T03:05:50.440Z,24.00
2019-02-22T03:06:50.606Z,24.00
2019-02-22T03:07:50.427Z,24.00
2019-02-22T03:08:50.411Z,24.00
2019-02-22T03:09:50.402Z,24.00
2019-02-22T03:10:50.395Z,24.00
2019-02-22T03:11:50.386Z,24.00
2019-02-22T03:12:50.407Z,24.00
2019-02-22T03:14:02.136Z,24.00
2019-02-22T03:14:50.351Z,24.00
2019-02-22T03:15:50.340Z,24.00
2019-02-22T03:16:50.349Z,24.00
2019-02-22T03:17:50.320Z,24.00
2019-02-22T03:18:50.347Z,24.00
2019-02-22T03:19:50.311Z,24.00
2019-02-22T03:20:50.282Z,24.00
2019-02-22T03:21:50.293Z,24.00
2019-02-22T03:22:50.271Z,24.00
2019-02-22T03:23:50.269Z,24.00
2019-02-22T03:24:53.585Z,24.00
2019-02-22T03:25:50.241Z,24.00
2019-02-22T03:26:50.227Z,24.00
2019-02-22T03:27:50.221Z,24.00
2019-02-22T03:28:50.207Z,24.00
2019-02-22T03:29:50.192Z,24.00
2019-02-22T03:30:50.219Z,24.00
2019-02-22T03:31:50.195Z,24.00
2019-02-22T03:32:50.166Z,24.00
2019-02-22T03:33:50.173Z,24.00
2019-02-22T03:34:50.141Z,24.00
2019-02-22T03:35:50.137Z,24.00
2019-02-22T03:36:50.143Z,24.00
2019-02-22T03:37:50.112Z,24.00
2019-02-22T03:38:50.105Z,24.00
2019-02-22T03:39:50.094Z,24.00
2019-02-22T03:40:50.089Z,24.00
2019-02-22T03:41:50.067Z,24.00
2019-02-22T03:42:50.092Z,24.00
2019-02-22T03:43:50.057Z,24.00
2019-02-22T03:45:00.562Z,24.00
2019-02-22T03:45:50.045Z,24.00
2019-02-22T03:46:50.015Z,24.00
2019-02-22T03:47:50.013Z,24.00
2019-02-22T03:48:50.046Z,24.00
2019-02-22T03:49:49.985Z,24.00
2019-02-22T03:50:49.977Z,24.00
2019-02-22T03:51:49.973Z,24.00
2019-02-22T03:52:49.958Z,24.00
2019-02-22T03:53:49.962Z,24.00
2019-02-22T03:54:49.980Z,24.00
2019-02-22T03:55:49.937Z,24.00
2019-02-22T03:56:49.916Z,24.00
2019-02-22T03:57:49.899Z,24.00
2019-02-22T03:58:49.895Z,24.00
2019-02-22T03:59:51.157Z,28.00
2019-02-22T04:00:49.920Z,24.00
2019-02-22T04:01:49.917Z,28.00
2019-02-22T04:02:49.858Z,28.00
2019-02-22T04:03:49.844Z,28.00
2019-02-22T04:04:49.831Z,28.00
2019-02-22T04:05:49.829Z,24.00
2019-02-22T04:06:49.836Z,24.00
2019-02-22T04:07:49.795Z,28.00
2019-02-22T04:08:49.792Z,24.00
2019-02-22T04:09:49.780Z,28.00
2019-02-22T04:10:49.812Z,28.00
2019-02-22T04:11:49.763Z,28.00
2019-02-22T04:12:49.754Z,28.00
2019-02-22T04:13:49.739Z,28.00
2019-02-22T04:14:49.728Z,28.00
2019-02-22T04:15:59.929Z,28.00
2019-02-22T04:16:49.749Z,28.00
2019-02-22T04:17:49.700Z,28.00
2019-02-22T04:18:49.698Z,24.00
2019-02-22T04:19:49.681Z,24.00
2019-02-22T04:20:49.672Z,24.00
2019-02-22T04:21:49.696Z,24.00
2019-02-22T04:22:49.647Z,24.00
2019-02-22T04:23:49.656Z,24.00
2019-02-22T04:24:49.620Z,24.00
2019-02-22T04:25:49.614Z,24.00
2019-02-22T04:26:49.626Z,24.00
2019-02-22T04:27:49.644Z,24.00
2019-02-22T04:28:49.580Z,24.00
2019-02-22T04:29:49.581Z,24.00
2019-02-22T04:30:49.578Z,24.00
2019-02-22T04:31:49.551Z,24.00
2019-02-22T04:32:49.543Z,24.00
2019-02-22T04:33:49.569Z,24.00
2019-02-22T04:34:49.523Z,24.00
2019-02-22T04:35:49.517Z,24.00
2019-02-22T04:36:49.503Z,24.00
2019-02-22T04:37:49.487Z,24.00
2019-02-22T04:38:49.475Z,24.00
2019-02-22T04:39:49.509Z,24.00
2019-02-22T04:40:49.524Z,24.00
2019-02-22T04:41:57.816Z,24.00
2019-02-22T04:42:50.493Z,28.00
2019-02-22T04:43:49.426Z,28.00
2019-02-22T04:44:49.415Z,28.00
2019-02-22T04:45:49.425Z,24.00
2019-02-22T04:47:01.121Z,24.00
2019-02-22T04:47:49.403Z,28.00
2019-02-22T04:48:49.378Z,28.00
2019-02-22T04:49:49.368Z,28.00
2019-02-22T04:50:49.380Z,28.00
2019-02-22T04:51:49.400Z,32.00
2019-02-22T04:52:49.335Z,28.00
2019-02-22T04:53:49.326Z,28.00
2019-02-22T04:54:49.317Z,32.00
2019-02-22T04:55:49.308Z,36.00
2019-02-22T04:56:49.289Z,32.00
2019-02-22T04:57:49.316Z,36.00
2019-02-22T04:58:49.282Z,36.00
2019-02-22T04:59:49.272Z,36.00
2019-02-22T05:00:49.253Z,40.00
2019-02-22T05:01:49.238Z,44.00
2019-02-22T05:02:49.235Z,48.00
2019-02-22T05:03:49.261Z,48.00
2019-02-22T05:04:49.238Z,52.00
2019-02-22T05:05:49.205Z,56.00
2019-02-22T05:06:49.192Z,60.00
2019-02-22T05:07:49.186Z,64.00
2019-02-22T05:08:49.177Z,72.00
2019-02-22T05:09:49.196Z,76.00
2019-02-22T05:10:49.145Z,84.00
2019-02-22T05:11:49.141Z,92.00
2019-02-22T05:12:49.130Z,100.00
2019-02-22T05:13:49.120Z,108.00
2019-02-22T05:14:49.128Z,120.00
2019-02-22T05:15:49.121Z,132.00
2019-02-22T05:16:49.093Z,140.00
2019-02-22T05:17:59.645Z,156.00
2019-02-22T05:18:49.084Z,168.00
2019-02-22T05:19:49.056Z,184.00
2019-02-22T05:20:49.047Z,200.00
2019-02-22T05:21:49.229Z,220.00
2019-02-22T05:22:49.028Z,240.00
2019-02-22T05:23:49.026Z,256.00
2019-02-22T05:24:49.004Z,256.00
2019-02-22T05:25:48.995Z,280.00
2019-02-22T05:26:49.004Z,304.00
2019-02-22T05:27:49.006Z,328.00
2019-02-22T05:28:48.966Z,356.00
2019-02-22T05:29:48.959Z,384.00
2019-02-22T05:30:48.943Z,416.00
2019-02-22T05:31:48.936Z,448.00
2019-02-22T05:32:48.931Z,480.00
2019-02-22T05:33:48.972Z,516.00
2019-02-22T05:34:48.902Z,548.00
2019-02-22T05:35:48.888Z,588.00
2019-02-22T05:36:48.896Z,624.00
2019-02-22T05:37:48.869Z,660.00
2019-02-22T05:38:48.881Z,700.00
2019-02-22T05:39:48.897Z,740.00
2019-02-22T05:40:48.838Z,780.00
2019-02-22T05:41:48.831Z,824.00
2019-02-22T05:42:48.821Z,868.00
2019-02-22T05:43:48.807Z,912.00
2019-02-22T05:44:48.848Z,956.00
2019-02-22T05:45:48.827Z,1004.00
2019-02-22T05:46:59.677Z,1044.00
2019-02-22T05:47:49.794Z,1092.00
2019-02-22T05:48:58.750Z,1136.00
2019-02-22T05:49:48.768Z,1184.00
2019-02-22T05:50:48.735Z,1228.00
2019-02-22T05:51:48.912Z,1276.00
2019-02-22T05:52:48.714Z,1328.00
2019-02-22T05:53:48.709Z,1372.00
2019-02-22T05:54:48.692Z,1420.00
2019-02-22T05:55:48.684Z,1464.00
2019-02-22T05:56:48.681Z,1512.00
2019-02-22T05:57:48.718Z,1560.00
2019-02-22T05:58:48.711Z,1608.00
2019-02-22T05:59:48.639Z,1660.00
2019-02-22T06:00:48.630Z,1712.00
2019-02-22T06:01:48.619Z,1760.00
2019-02-22T06:02:48.619Z,1816.00
2019-02-22T06:03:48.608Z,1876.00
2019-02-22T06:04:48.599Z,1940.00
2019-02-22T06:05:48.581Z,1996.00
2019-02-22T06:06:48.590Z,2072.00
2019-02-22T06:07:48.564Z,2164.00
2019-02-22T06:08:48.628Z,2232.00
2019-02-22T06:09:48.536Z,2312.00
2019-02-22T06:10:48.532Z,2348.00
2019-02-22T06:11:48.521Z,2384.00
2019-02-22T06:12:48.512Z,2436.00
2019-02-22T06:13:48.501Z,2492.00
2019-02-22T06:14:48.539Z,2560.00
2019-02-22T06:15:48.477Z,2664.00
2019-02-22T06:16:48.465Z,2776.00
2019-02-22T06:17:48.457Z,2824.00
2019-02-22T06:18:48.444Z,2844.00
2019-02-22T06:19:58.681Z,2884.00
2019-02-22T06:20:48.439Z,2944.00
2019-02-22T06:21:48.415Z,3008.00
2019-02-22T06:22:48.403Z,3068.00
2019-02-22T06:23:48.427Z,3128.00
2019-02-22T06:24:48.382Z,3184.00
2019-02-22T06:25:48.420Z,3248.00
2019-02-22T06:26:48.371Z,3312.00
2019-02-22T06:27:48.357Z,3376.00
2019-02-22T06:28:48.354Z,3436.00
2019-02-22T06:29:49.328Z,3508.00
2019-02-22T06:30:48.329Z,3576.00
2019-02-22T06:31:48.347Z,3648.00
2019-02-22T06:32:48.323Z,3708.00
2019-02-22T06:33:48.309Z,3780.00
2019-02-22T06:34:48.280Z,3844.00
2019-02-22T06:35:48.282Z,3904.00
2019-02-22T06:36:48.257Z,3968.00
2019-02-22T06:37:48.294Z,4024.00
2019-02-22T06:38:48.240Z,4068.00
2019-02-22T06:39:48.233Z,4124.00
2019-02-22T06:40:48.407Z,4192.00
2019-02-22T06:41:48.225Z,4240.00
2019-02-22T06:42:48.216Z,4304.00
2019-02-22T06:43:48.236Z,4352.00
2019-02-22T06:44:48.250Z,4424.00
2019-02-22T06:45:48.170Z,4476.00
2019-02-22T06:46:48.162Z,4532.00
2019-02-22T06:47:48.160Z,4588.00
2019-02-22T06:48:48.162Z,4660.00
2019-02-22T06:49:48.155Z,4712.00
2019-02-22T06:52:08.926Z,4852.00
2019-02-22T06:53:08.862Z,4912.00
2019-02-22T06:54:09.609Z,4976.00
2019-02-22T06:55:08.773Z,5004.00
2019-02-22T06:56:08.820Z,5108.00
2019-02-22T06:57:08.754Z,5180.00
2019-02-22T06:58:11.697Z,5228.00
2019-02-22T06:59:08.748Z,5316.00
2019-02-22T07:00:08.773Z,5396.00
2019-02-22T07:01:08.717Z,5460.00
2019-02-22T07:02:08.697Z,5504.00
2019-02-22T07:03:08.902Z,5604.00
2019-02-22T07:04:09.740Z,5676.00
2019-02-22T07:05:09.001Z,5724.00
2019-02-22T07:06:09.642Z,5756.00
2019-02-22T07:07:08.688Z,5896.00
2019-02-22T07:08:08.630Z,5956.00
2019-02-22T07:09:16.660Z,6020.00
2019-02-22T07:10:08.605Z,6108.00
2019-02-22T07:11:08.597Z,6008.00
2019-02-22T07:12:08.586Z,5732.00
2019-02-22T07:13:08.586Z,5764.00
2019-02-22T07:14:08.577Z,5820.00
2019-02-22T07:15:08.598Z,5896.00
2019-02-22T07:16:08.543Z,5932.00
2019-02-22T07:17:08.579Z,5992.00
2019-02-22T07:18:08.534Z,6056.00
2019-02-22T07:19:08.514Z,6156.00
2019-02-22T07:20:08.555Z,6232.00
2019-02-22T07:21:08.555Z,6304.00
2019-02-22T07:22:08.582Z,7024.00
2019-02-22T07:23:15.483Z,7152.00
2019-02-22T07:24:08.466Z,7244.00
2019-02-22T07:25:08.479Z,7332.00
2019-02-22T07:26:08.440Z,7416.00
2019-02-22T07:27:08.560Z,7512.00
2019-02-22T07:28:08.429Z,7612.00
2019-02-22T07:29:08.416Z,7708.00
2019-02-22T07:30:08.418Z,7792.00
2019-02-22T07:31:08.405Z,7892.00
2019-02-22T07:32:08.384Z,7980.00
2019-02-22T07:33:08.434Z,8060.00
2019-02-22T07:34:08.366Z,8152.00
2019-02-22T07:35:09.865Z,8228.00
2019-02-22T07:36:08.339Z,8304.00
2019-02-22T07:37:08.380Z,8388.00
2019-02-22T07:38:08.321Z,8408.00
2019-02-22T07:39:08.328Z,8520.00
2019-02-22T07:40:08.319Z,8624.00
2019-02-22T07:41:08.293Z,8728.00
2019-02-22T07:42:08.283Z,8812.00
2019-02-22T07:43:08.498Z,8888.00
2019-02-22T07:44:08.455Z,8960.00
2019-02-22T07:45:08.263Z,9036.00
2019-02-22T07:46:08.242Z,9112.00
2019-02-22T07:47:08.275Z,9184.00
2019-02-22T07:48:08.225Z,9260.00
2019-02-22T07:49:08.204Z,9324.00
2019-02-22T07:50:08.450Z,9396.00
2019-02-22T07:51:08.250Z,9468.00
2019-02-22T07:52:08.238Z,9528.00
2019-02-22T07:53:08.267Z,9596.00
2019-02-22T07:56:44.902Z,9824.00
2019-02-22T07:57:56.701Z,9880.00
2019-02-22T07:58:44.802Z,9932.00
2019-02-22T08:01:33.677Z,10096.00
2019-02-22T08:02:33.620Z,10148.00
2019-02-22T08:03:33.624Z,10200.00
2019-02-22T08:04:33.600Z,10228.00
2019-02-22T08:07:59.489Z,10396.00
2019-02-22T08:08:59.582Z,10480.00
2019-02-22T08:11:16.137Z,10592.00
2019-02-22T08:13:43.426Z,10684.00
2019-02-22T08:14:44.054Z,10756.00
2019-02-22T08:15:43.275Z,10808.00
2019-02-22T08:16:43.277Z,10848.00
2019-02-22T08:17:43.267Z,10896.00
2019-02-22T08:18:43.293Z,10936.00
2019-02-22T08:19:43.275Z,10980.00
2019-02-22T08:20:43.241Z,11020.00
2019-02-22T08:21:50.223Z,11052.00
2019-02-22T08:22:43.209Z,11108.00
2019-02-22T08:23:51.695Z,11124.00
2019-02-22T08:24:43.180Z,11772.00
2019-02-22T08:25:43.184Z,11804.00
2019-02-22T08:26:50.217Z,11840.00
2019-02-22T08:27:53.018Z,11900.00
2019-02-22T08:28:44.145Z,11940.00
2019-02-22T08:29:43.169Z,11392.00
2019-02-22T08:30:43.121Z,11436.00
2019-02-22T08:31:43.109Z,11468.00
2019-02-22T08:32:43.105Z,11508.00
2019-02-22T08:33:51.604Z,11544.00
2019-02-22T08:34:45.762Z,11580.00
2019-02-22T08:35:43.136Z,11612.00
2019-02-22T08:36:50.071Z,11620.00
2019-02-22T08:39:10.843Z,11732.00
2019-02-22T08:40:19.712Z,11764.00
2019-02-22T08:41:10.899Z,11780.00
2019-02-22T08:43:37.648Z,11864.00
2019-02-22T08:45:47.270Z,11920.00
2019-02-22T08:46:47.244Z,11964.00
2019-02-22T08:47:47.235Z,11980.00
2019-02-22T08:48:47.239Z,12016.00
2019-02-22T08:49:47.209Z,12040.00
2019-02-22T08:50:47.254Z,12044.00
2019-02-22T08:51:47.219Z,12064.00
2019-02-22T08:52:47.172Z,12116.00
2019-02-22T08:53:47.158Z,12136.00
2019-02-22T08:54:47.531Z,12156.00
2019-02-22T08:55:47.139Z,12188.00
2019-02-22T08:56:47.141Z,12192.00
2019-02-22T08:57:47.119Z,12228.00
2019-02-22T08:58:47.132Z,12252.00
2019-02-22T08:59:47.130Z,12284.00
2019-02-22T09:00:47.138Z,12316.00
2019-02-22T09:01:47.186Z,12324.00
2019-02-22T09:02:47.084Z,12360.00
2019-02-22T09:03:50.965Z,12372.00
2019-02-22T09:04:47.161Z,12388.00
2019-02-22T09:05:47.091Z,12400.00
2019-02-22T09:06:47.192Z,12436.00
2019-02-22T09:07:47.121Z,12460.00
2019-02-22T09:08:47.134Z,12424.00
2019-02-22T09:09:47.001Z,12504.00
2019-02-22T09:10:47.020Z,12508.00
2019-02-22T09:11:46.975Z,12492.00
2019-02-22T09:12:47.470Z,12452.00
2019-02-22T09:13:46.946Z,12496.00
2019-02-22T09:14:46.944Z,12452.00
2019-02-22T09:15:53.929Z,12348.00
2019-02-22T09:16:47.063Z,12220.00
2019-02-22T09:17:46.922Z,12316.00
2019-02-22T09:18:47.052Z,12120.00
2019-02-22T09:19:46.889Z,12660.00
2019-02-22T09:20:46.890Z,12612.00
2019-02-22T09:21:46.885Z,12636.00
2019-02-22T09:22:46.851Z,12668.00
2019-02-22T09:23:46.847Z,12340.00
2019-02-22T09:24:47.101Z,12180.00
2019-02-22T09:25:47.048Z,12132.00
2019-02-22T09:26:46.816Z,12080.00
2019-02-22T09:27:46.808Z,12248.00
2019-02-22T09:28:47.098Z,12556.00
2019-02-22T09:29:58.166Z,12820.00
2019-02-22T09:30:47.797Z,12832.00
2019-02-22T09:31:46.756Z,12876.00
2019-02-22T09:32:47.034Z,12884.00
2019-02-22T09:33:46.733Z,12916.00
2019-02-22T09:34:46.735Z,12940.00
2019-02-22T09:35:46.711Z,12956.00
2019-02-22T09:36:46.752Z,12972.00
2019-02-22T09:37:46.814Z,12984.00
2019-02-22T09:38:46.678Z,12988.00
2019-02-22T09:39:46.749Z,13000.00
2019-02-22T09:40:46.661Z,13000.00
2019-02-22T09:41:46.702Z,12952.00
2019-02-22T09:42:46.677Z,13004.00
2019-02-22T09:43:54.542Z,13000.00
2019-02-22T09:44:47.626Z,13004.00
2019-02-22T09:45:46.636Z,13004.00
2019-02-22T09:46:59.274Z,13020.00
2019-02-22T09:47:46.619Z,13012.00
2019-02-22T09:48:46.627Z,13028.00
2019-02-22T09:49:46.584Z,13008.00
2019-02-22T09:50:46.566Z,13016.00
2019-02-22T09:51:46.553Z,13016.00
2019-02-22T09:52:46.538Z,13048.00
2019-02-22T09:53:47.571Z,12984.00
2019-02-22T09:54:46.700Z,13044.00
2019-02-22T09:55:46.501Z,13056.00
2019-02-22T09:56:46.490Z,13044.00
2019-02-22T09:57:46.484Z,13076.00
2019-02-22T09:58:46.472Z,13040.00
2019-02-22T09:59:46.454Z,13016.00
2019-02-22T10:00:46.458Z,13052.00
2019-02-22T10:01:46.449Z,12820.00
2019-02-22T10:02:46.435Z,13156.00
2019-02-22T10:03:46.428Z,13144.00
2019-02-22T10:04:54.481Z,13108.00
2019-02-22T10:05:48.105Z,13172.00
2019-02-22T10:06:46.388Z,13104.00
2019-02-22T10:07:46.373Z,13132.00
2019-02-22T10:08:46.370Z,13060.00
2019-02-22T10:09:46.358Z,13096.00
2019-02-22T10:10:46.343Z,13084.00
2019-02-22T10:11:46.348Z,13072.00
2019-02-22T10:12:46.325Z,13096.00
2019-02-22T10:13:46.315Z,13020.00
2019-02-22T10:14:46.300Z,13012.00
2019-02-22T10:15:46.284Z,13044.00
2019-02-22T10:16:46.329Z,13036.00
2019-02-22T10:17:59.187Z,13016.00
2019-02-22T10:18:46.271Z,12976.00
2019-02-22T10:19:46.241Z,13032.00
2019-02-22T10:20:46.277Z,13016.00
2019-02-22T10:21:46.237Z,13016.00
2019-02-22T10:22:46.255Z,13020.00
2019-02-22T10:23:46.390Z,13000.00
2019-02-22T10:24:46.197Z,13008.00
2019-02-22T10:25:46.194Z,12972.00
2019-02-22T10:26:46.207Z,13008.00
2019-02-22T10:27:46.195Z,12940.00
2019-02-22T10:28:46.150Z,12964.00
2019-02-22T10:29:46.149Z,12988.00
2019-02-22T10:30:46.137Z,12956.00
2019-02-22T10:31:46.133Z,12984.00
2019-02-22T10:32:46.115Z,12896.00
2019-02-22T10:33:46.097Z,12952.00
2019-02-22T10:34:46.132Z,12964.00
2019-02-22T10:35:46.081Z,12952.00
2019-02-22T10:36:46.070Z,12964.00
2019-02-22T10:37:46.056Z,12340.00
2019-02-22T10:38:46.048Z,13028.00
2019-02-22T10:39:46.039Z,13000.00
2019-02-22T10:40:46.193Z,12980.00
2019-02-22T10:41:46.011Z,12968.00
2019-02-22T10:42:45.999Z,12972.00
2019-02-22T10:43:45.987Z,12904.00
2019-02-22T10:44:46.004Z,12844.00
2019-02-22T10:45:45.983Z,12772.00
2019-02-22T10:46:45.971Z,12752.00
2019-02-22T10:47:45.972Z,12668.00
2019-02-22T10:48:59.304Z,12700.00
2019-02-22T10:49:45.942Z,12716.00
2019-02-22T10:50:45.925Z,12692.00
2019-02-22T10:51:45.924Z,12608.00
2019-02-22T10:52:45.935Z,12560.00
2019-02-22T10:53:45.957Z,12492.00
2019-02-22T10:54:45.875Z,12448.00
2019-02-22T10:55:45.892Z,12340.00
2019-02-22T10:56:45.859Z,12412.00
2019-02-22T10:57:45.875Z,12340.00
2019-02-22T10:58:45.829Z,12428.00
2019-02-22T10:59:46.060Z,12480.00
2019-02-22T11:00:45.837Z,12500.00
2019-02-22T11:01:45.825Z,12456.00
2019-02-22T11:02:45.791Z,12396.00
2019-02-22T11:03:46.490Z,12448.00
2019-02-22T11:04:45.767Z,12352.00
2019-02-22T11:05:45.822Z,12452.00
2019-02-22T11:06:45.797Z,12444.00
2019-02-22T11:07:45.742Z,12408.00
2019-02-22T11:08:45.726Z,12412.00
2019-02-22T11:09:45.713Z,12364.00
2019-02-22T11:10:45.702Z,12396.00
2019-02-22T11:11:45.729Z,12316.00
2019-02-22T11:12:45.695Z,12356.00
2019-02-22T11:13:45.678Z,12256.00
2019-02-22T11:14:45.657Z,12220.00
2019-02-22T11:15:45.646Z,12188.00
2019-02-22T11:16:45.645Z,12180.00
2019-02-22T11:17:45.677Z,12160.00
2019-02-22T11:18:45.621Z,12128.00
2019-02-22T11:19:57.204Z,12052.00
2019-02-22T11:20:45.601Z,11980.00
2019-02-22T11:21:45.602Z,11904.00
2019-02-22T11:22:45.574Z,11884.00
2019-02-22T11:23:45.601Z,11768.00
2019-02-22T11:24:45.561Z,11808.00
2019-02-22T11:25:45.551Z,11736.00
2019-02-22T11:26:45.532Z,11688.00
2019-02-22T11:27:45.545Z,11524.00
2019-02-22T11:28:45.509Z,11676.00
2019-02-22T11:29:45.532Z,11644.00
2019-02-22T11:30:45.488Z,11596.00
2019-02-22T11:31:45.477Z,11556.00
2019-02-22T11:32:45.470Z,11480.00
2019-02-22T11:33:45.454Z,11356.00
2019-02-22T11:34:45.455Z,11372.00
2019-02-22T11:35:45.480Z,11444.00
2019-02-22T11:36:45.426Z,11372.00
2019-02-22T11:37:45.416Z,11304.00
2019-02-22T11:38:45.417Z,11256.00
2019-02-22T11:39:45.397Z,11136.00
2019-02-22T11:40:45.382Z,11160.00
2019-02-22T11:41:45.410Z,11140.00
2019-02-22T11:42:45.359Z,11108.00
2019-02-22T11:43:45.345Z,11060.00
2019-02-22T11:44:45.348Z,10996.00
2019-02-22T11:45:45.324Z,11008.00
2019-02-22T11:46:45.313Z,10928.00
2019-02-22T11:47:45.346Z,10920.00
2019-02-22T11:48:45.294Z,10884.00
2019-02-22T11:49:45.282Z,10776.00
2019-02-22T11:50:59.089Z,10812.00
2019-02-22T11:51:45.277Z,10736.00
2019-02-22T11:52:45.271Z,8952.00
2019-02-22T11:53:45.265Z,8880.00
2019-02-22T11:54:45.279Z,8840.00
2019-02-22T11:55:45.248Z,8876.00
2019-02-22T11:56:45.209Z,10344.00
2019-02-22T11:57:45.208Z,10548.00
2019-02-22T11:58:45.186Z,10504.00
2019-02-22T11:59:45.195Z,10440.00
2019-02-22T12:00:45.188Z,10396.00
2019-02-22T12:01:45.154Z,10352.00
2019-02-22T12:02:45.729Z,10284.00
2019-02-22T12:03:45.146Z,10264.00
2019-02-22T12:04:45.201Z,10224.00
2019-02-22T12:05:45.117Z,10200.00
2019-02-22T12:06:45.107Z,10140.00
2019-02-22T12:07:45.094Z,10084.00
2019-02-22T12:08:45.080Z,10052.00
2019-02-22T12:09:45.071Z,10016.00
2019-02-22T12:10:45.236Z,9952.00
2019-02-22T12:11:45.116Z,9896.00
2019-02-22T12:12:45.120Z,9856.00
2019-02-22T12:13:45.082Z,9816.00
2019-02-22T12:14:51.622Z,9760.00
2019-02-22T12:15:46.071Z,9724.00
2019-02-22T12:16:44.995Z,9708.00
2019-02-22T12:17:44.997Z,9692.00
2019-02-22T12:18:44.984Z,9644.00
2019-02-22T12:19:45.557Z,9596.00
2019-02-22T12:20:44.950Z,9528.00
2019-02-22T12:21:57.599Z,9488.00
2019-02-22T12:22:44.930Z,9436.00
2019-02-22T12:23:44.921Z,9380.00
2019-02-22T12:24:44.906Z,9312.00
2019-02-22T12:25:44.899Z,9252.00
2019-02-22T12:26:44.888Z,9172.00
2019-02-22T12:27:44.882Z,9108.00
2019-02-22T12:28:44.867Z,9036.00
2019-02-22T12:29:44.853Z,9000.00
2019-02-22T12:30:44.844Z,8980.00
2019-02-22T12:31:44.836Z,8932.00
2019-02-22T12:32:44.825Z,8884.00
2019-02-22T12:33:44.849Z,8836.00